Главная страница
METAR-TAF:

METAR-TAF

Аэропорты :

Саннесшёэн, Норвегия

широта: 65-58N, долгота: 012-28E, высота над уровнем моря: 1 м

Текущие метеонаблюдения

Эта сводка был подготовлена 1 час и 8 минут назад, в 20:50 UTC
Ветер 4 Узел от северно-северо-западный, изменяющийся между западный и северо-северо-восточный
Температура 4°C
Влажность 65%
Давление 1005 hPa
небольшая облачность на высоте 3000 фута, мощно-кучевые.
небольшая облачность на высоте 3500 фута
ливни в окрестностях

METAR: ENST 072050Z 33004KT 270V030 VCSH FEW030TCU FEW035 04/M02 Q1005 RMK WIND 300FT 31006KT

Время: 23:58 (21:58 UTC)


TAF: отсутствует

Метеонаблюдения и прогнозы для более 4000 аэропортов (сводки METAR и TAF).

Имеющиеся станции представлены на карте желтыми и красными точками.

Чтобы увидеть название станции, наведите на нее мышь.

Затем щелкните, чтобы увидеть метеонаблюдения и метеопрогнозы.

Управление картой: чтобы увеличить масштаб, щелкните зеленые кнопки с черным крестиком; чтобы уменьшить масштаб, щелкните зеленую кнопку с тире; для просмотра соседних карт щелкайте зеленые стрелки.


METAR-TAF: